Boulder City, Nevada Weather observations

Data are for observation ending at time listed.
 Day   Time    Ave.   Ave.  Ave.  Vector   Max.   Stn.    Total    Solar   Ave.  
  of    of     Air    Rel.  Wind   Wind    Wind   Baro.  Precip.   Rad.    Soil  
Year   Day     Temp.  Hum.  Speed  Dir.    Gust   Pres.                    Temp. 
2026   (PST)    F      %     mph   deg.    mph     mb.     in.     W/m2     F   
------------------------------------------------------------------------------
 244    0:00   82.1    36    6.7   166     11.5   930.2    0.00       0    95.8
 244    0:10   81.9    36    7.3   166     12.5   930.2    0.00       0    95.7
 244    0:20   81.7    37    6.8   164     14.0   930.1    0.00       0    95.7
 244    0:30   81.5    37    5.2   168     11.8   930.1    0.00       0    95.5
 244    0:40   81.4    37    3.6   164      9.7   930.1    0.00       0    95.4
 244    0:50   81.1    38    3.7   170      7.8   930.0    0.00       0    95.3
 244    1:00   81.0    37    5.9   176      9.7   930.0    0.00       0    95.2
 244    1:10   81.1    38    6.3   176      9.9   930.0    0.00       0    95.1
 244    1:20   80.7    40    5.6   189      8.0   930.0    0.00       0    94.9
 244    1:30   80.3    41    6.7   182     10.8   930.0    0.00       0    94.9
 244    1:40   80.4    42    6.7   173     13.4   930.0    0.00       0    94.7
 244    1:50   80.2    44    5.4   175     10.9   930.0    0.00       0    94.7
 244    2:00   80.1    46    6.1   173     14.8   930.1    0.00       0    94.5
 244    2:10   80.0    46    5.6   174     12.0   930.2    0.00       0    94.4
 244    2:20   79.9    46    5.4   182     10.4   930.3    0.00       0    94.4
 244    2:30   79.5    47    4.0   210      6.6   930.3    0.00       0    94.2
 244    2:40   78.7    47    3.8   221      8.1   930.3    0.00       0    94.1
 244    2:50   78.9    47    5.1   209     10.6   930.2    0.00       0    93.9
 244    3:00   79.0    46    6.6   226     11.2   930.3    0.00       0    94.0
 244    3:10   78.9    46    6.0   228     11.8   930.3    0.00       0    93.8
 244    3:20   78.3    46    4.6   227     10.7   930.3    0.00       0    93.7
 244    3:30   78.2    46    4.7   237      7.8   930.3    0.00       0    93.6
 244    3:40   78.2    47    4.3   224      7.4   930.3    0.00       0    93.6
 244    3:50   78.6    47    5.9   195     13.9   930.4    0.00       0    93.5
 244    4:00   78.9    47    6.1   196      9.5   930.4    0.00       0    93.5
 244    4:10   78.6    48    5.2   207      9.4   930.5    0.00       0    93.3
 244    4:20   78.5    49    6.9   204     11.2   930.5    0.00       0    93.1
 244    4:30   78.5    49    7.4   171     14.8   930.5    0.00       0    93.1
 244    4:40   78.4    50    6.0   199     12.9   930.5    0.00       0    93.0
 244    4:50   77.6    50    3.2   215      5.8   930.5    0.00       0    92.9
 244    5:00   77.4    50    4.0   200      8.0   930.5    0.00       0    92.7
 244    5:10   77.5    50    4.3   210      7.7   930.4    0.00       2    92.7
 244    5:20   77.3    50    3.4   226      5.1   930.5    0.00       5    92.7
 244    5:30   76.6    51    3.1   237      5.1   930.6    0.00      12    92.5
 244    5:40   76.6    51    3.6   228      6.2   930.7    0.00      44    92.4
 244    5:50   77.2    50    3.4   231      6.1   930.7    0.00      51    92.3
 244    6:00   77.4    48    3.9   219      6.5   930.8    0.00      73    92.3
 244    6:10   78.0    42    4.0   212      7.0   931.0    0.00      89    92.1
 244    6:20   78.2    41    3.1   192      5.2   931.1    0.00      70    92.1
 244    6:30   78.7    41    3.6   178      6.3   931.2    0.00     172    92.0
 244    6:40   79.9    40    4.1   184      6.8   931.2    0.00     248    91.9
 244    6:50   80.4    40    4.8   208      8.2   931.3    0.00     287    91.8
 244    7:00   80.5    41    5.4   219      9.9   931.4    0.00     301    91.7
 244    7:10   80.7    43    5.9   211      9.4   931.6    0.00     335    91.7
 244    7:20   81.4    42    5.1   210      9.6   931.7    0.00     391    91.5
 244    7:30   81.8    42    6.4   210     11.4   931.8    0.00     425    91.6
 244    7:40   82.7    41    6.8   187     11.8   931.9    0.00     457    91.5
 244    7:50   83.1    41    6.4   188     10.4   931.9    0.00     487    91.4
 244    8:00   83.8    41    7.0   178     11.5   932.0    0.00     512    91.3
 244    8:10   84.0    41    5.9   202      9.9   932.1    0.00     547    91.3
 244    8:20   84.2    40    6.1   198     12.3   932.2    0.00     618    91.5
 244    8:30   85.8    38    4.7   173     11.9   932.3    0.00     647    91.5
 244    8:40   86.1    37    7.5   155     16.0   932.4    0.00     634    91.5
 244    8:50   86.3    37    6.9   132     15.0   932.4    0.00     657    91.6
 244    9:00   85.9    38    7.0   142     16.2   932.2    0.00     680    91.8
 244    9:10   86.0    36    8.4   161     17.0   932.4    0.00     473    91.2
 244    9:20   87.3    30   13.1   164     23.6   932.4    0.00     732    93.8
 244    9:30   88.4    28   10.8   168     19.9   932.3    0.00     758    95.3
 244    9:40   88.7    27   12.1   159     22.4   932.3    0.00     501    94.4
 244    9:50   88.5    26   12.8   160     27.2   932.2    0.00      72    94.0
 244   10:00   89.3    24   12.6   159     23.3   932.0    0.00     351    95.3
 244   10:10   89.9    24   12.8   176     22.6   932.1    0.00     510    96.0
 244   10:20   89.7    24   13.2   160     23.2   932.1    0.00     569    97.5
 244   10:30   90.4    22   11.1   157     23.2   932.0    0.00     580    106.4
 244   10:40   91.1    22   10.9   173     21.0   932.2    0.00     854    97.1
 244   10:50   91.3    22   10.2   160     15.3   932.1    0.00     935    93.8

Return to Boulder City, Nevada graphs page.


Western Regional Climate Center,wrcc@dri.edu